createdAt,value
2019-03-30T00:01:32.101Z,16.70
2019-03-30T00:04:03.152Z,16.60
2019-03-30T00:06:34.366Z,16.60
2019-03-30T00:09:09.685Z,16.60
2019-03-30T00:11:40.792Z,16.60
2019-03-30T00:14:11.777Z,16.50
2019-03-30T00:16:42.770Z,16.50
2019-03-30T00:19:13.897Z,16.50
2019-03-30T00:21:45.165Z,16.50
2019-03-30T00:24:16.217Z,16.50
2019-03-30T00:26:47.298Z,16.40
2019-03-30T00:29:18.312Z,16.40
2019-03-30T00:31:49.424Z,16.40
2019-03-30T00:34:20.545Z,16.40
2019-03-30T00:36:51.521Z,16.30
2019-03-30T00:39:22.576Z,16.30
2019-03-30T00:41:53.664Z,16.30
2019-03-30T00:44:24.665Z,16.30
2019-03-30T00:46:55.614Z,16.30
2019-03-30T00:49:26.679Z,16.20
2019-03-30T00:51:57.956Z,16.20
2019-03-30T00:54:29.003Z,16.20
2019-03-30T00:57:01.611Z,16.20
2019-03-30T00:59:32.827Z,16.10
2019-03-30T01:02:04.205Z,16.10
2019-03-30T01:04:36.414Z,16.10
2019-03-30T01:07:07.499Z,16.10
2019-03-30T01:09:38.658Z,16.00
2019-03-30T01:12:10.626Z,16.00
2019-03-30T01:14:41.869Z,16.00
2019-03-30T01:17:12.957Z,16.00
2019-03-30T01:19:44.001Z,16.00
2019-03-30T01:22:15.000Z,16.00
2019-03-30T01:24:46.173Z,16.00
2019-03-30T01:27:17.260Z,15.90
2019-03-30T01:29:48.556Z,15.90
2019-03-30T01:32:19.569Z,15.90
2019-03-30T01:34:50.508Z,15.90
2019-03-30T01:37:21.489Z,15.90
2019-03-30T01:39:53.452Z,15.90
2019-03-30T01:42:24.433Z,15.80
2019-03-30T01:44:55.408Z,15.80
2019-03-30T01:47:26.498Z,15.80
2019-03-30T01:49:57.730Z,15.80
2019-03-30T01:52:28.681Z,15.70
2019-03-30T01:54:59.703Z,15.70
2019-03-30T01:57:31.035Z,15.70
2019-03-30T02:00:02.166Z,15.70
2019-03-30T02:02:33.659Z,15.70
2019-03-30T02:05:05.188Z,15.70
2019-03-30T02:07:36.718Z,15.60
2019-03-30T02:10:08.724Z,15.60
2019-03-30T02:12:39.833Z,15.60
2019-03-30T02:15:11.873Z,15.60
2019-03-30T02:17:42.897Z,15.60
2019-03-30T02:20:30.596Z,15.60
2019-03-30T02:22:57.846Z,15.50
2019-03-30T02:25:29.176Z,15.50
2019-03-30T02:28:00.133Z,15.50
2019-03-30T02:30:31.222Z,15.50
2019-03-30T02:33:02.397Z,15.40
2019-03-30T02:35:33.509Z,15.40
2019-03-30T02:38:04.880Z,15.40
2019-03-30T02:40:36.031Z,15.40
2019-03-30T02:43:07.024Z,15.40
2019-03-30T02:45:38.181Z,15.30
2019-03-30T02:48:09.329Z,15.30
2019-03-30T02:50:50.186Z,15.30
2019-03-30T02:53:13.367Z,15.30
2019-03-30T02:55:44.462Z,15.20
2019-03-30T02:58:15.544Z,15.20
2019-03-30T03:00:46.683Z,15.20
2019-03-30T03:03:17.865Z,15.20
2019-03-30T03:05:48.876Z,15.20
2019-03-30T03:08:19.972Z,15.20
2019-03-30T03:10:51.313Z,15.10
2019-03-30T03:13:22.402Z,15.10
2019-03-30T03:15:54.488Z,15.10
2019-03-30T03:18:28.272Z,15.10
2019-03-30T03:21:07.236Z,15.00
2019-03-30T03:23:32.164Z,15.10
2019-03-30T03:26:03.464Z,15.00
2019-03-30T03:28:34.642Z,15.00
2019-03-30T03:31:05.891Z,15.00
2019-03-30T03:33:37.977Z,15.00
2019-03-30T03:36:09.144Z,14.90
2019-03-30T03:38:40.241Z,14.90
2019-03-30T03:41:11.349Z,14.90
2019-03-30T03:43:42.509Z,14.90
2019-03-30T03:46:13.623Z,14.90
2019-03-30T03:48:44.649Z,14.90
2019-03-30T03:51:26.287Z,14.90
2019-03-30T03:53:50.790Z,14.90
2019-03-30T03:56:25.075Z,14.90
2019-03-30T03:58:57.708Z,14.80
2019-03-30T04:01:30.113Z,14.80
2019-03-30T04:04:03.320Z,14.80
2019-03-30T04:06:36.715Z,14.80
2019-03-30T04:09:08.032Z,14.70
2019-03-30T04:11:41.126Z,14.70
2019-03-30T04:14:14.273Z,14.70
2019-03-30T04:16:45.426Z,14.70
2019-03-30T04:19:16.701Z,14.60
2019-03-30T04:21:47.775Z,14.70
2019-03-30T04:24:18.949Z,14.70
2019-03-30T04:26:49.955Z,14.60
2019-03-30T04:29:20.963Z,14.60
2019-03-30T04:31:51.946Z,14.60
2019-03-30T04:34:23.023Z,14.50
2019-03-30T04:36:54.112Z,14.60
2019-03-30T04:39:25.051Z,14.50
2019-03-30T04:41:56.065Z,14.50
2019-03-30T04:44:27.084Z,14.50
2019-03-30T04:46:58.202Z,14.40
2019-03-30T04:49:29.396Z,14.40
2019-03-30T04:52:00.402Z,14.40
2019-03-30T04:54:31.400Z,14.40
2019-03-30T04:57:02.577Z,14.40
2019-03-30T04:59:33.664Z,14.30
2019-03-30T05:02:04.729Z,14.30
2019-03-30T05:04:35.806Z,14.30
2019-03-30T05:07:07.173Z,14.30
2019-03-30T05:09:38.880Z,14.30
2019-03-30T05:12:10.533Z,14.20
2019-03-30T05:14:42.001Z,14.30
2019-03-30T05:17:13.751Z,14.20
2019-03-30T05:19:45.632Z,14.20
2019-03-30T05:22:16.821Z,14.20
2019-03-30T05:24:47.998Z,14.20
2019-03-30T05:27:19.327Z,14.20
2019-03-30T05:29:50.370Z,14.20
2019-03-30T05:32:21.421Z,14.20
2019-03-30T05:34:52.368Z,14.20
2019-03-30T05:37:23.448Z,14.20
2019-03-30T05:39:54.563Z,14.20
2019-03-30T05:42:25.653Z,14.20
2019-03-30T05:44:57.986Z,14.20
2019-03-30T05:47:29.582Z,14.20
2019-03-30T05:50:00.776Z,14.20
2019-03-30T05:52:35.387Z,14.20
2019-03-30T05:55:05.782Z,14.20
2019-03-30T05:57:36.862Z,14.20
2019-03-30T06:00:09.214Z,14.20
2019-03-30T06:02:40.721Z,14.20
2019-03-30T06:05:11.926Z,14.20
2019-03-30T06:07:43.096Z,14.20
2019-03-30T06:10:14.212Z,14.20
2019-03-30T06:12:46.035Z,14.20
2019-03-30T06:15:17.617Z,14.30
2019-03-30T06:17:48.988Z,14.30
2019-03-30T06:20:20.528Z,14.30
2019-03-30T06:22:51.971Z,14.30
2019-03-30T06:25:23.212Z,14.40
2019-03-30T06:27:54.582Z,14.40
2019-03-30T06:30:26.976Z,14.40
2019-03-30T06:32:58.071Z,14.40
2019-03-30T06:35:29.358Z,14.50
2019-03-30T06:38:00.765Z,14.50
2019-03-30T06:40:32.142Z,14.60
2019-03-30T06:43:03.418Z,14.60
2019-03-30T06:45:35.091Z,14.60
2019-03-30T06:48:06.550Z,14.70
2019-03-30T06:50:37.841Z,14.70
2019-03-30T06:53:08.967Z,14.80
2019-03-30T06:55:40.458Z,14.80
2019-03-30T06:58:13.340Z,14.90
2019-03-30T07:00:46.552Z,14.90
2019-03-30T07:03:18.228Z,15.00
2019-03-30T07:05:49.803Z,15.00
2019-03-30T07:08:21.358Z,15.00
2019-03-30T07:10:52.698Z,15.10
2019-03-30T07:13:26.291Z,15.20
2019-03-30T07:15:59.276Z,15.30
2019-03-30T07:18:31.398Z,15.30
2019-03-30T07:21:03.098Z,15.40
2019-03-30T07:23:34.562Z,15.50
2019-03-30T07:26:05.666Z,15.50
2019-03-30T07:28:40.341Z,15.60
2019-03-30T07:31:11.827Z,15.60
2019-03-30T07:33:43.094Z,15.70
2019-03-30T07:36:14.477Z,15.80
2019-03-30T07:38:45.842Z,15.90
2019-03-30T07:41:16.858Z,16.00
2019-03-30T07:43:48.160Z,16.00
2019-03-30T07:46:19.765Z,16.10
2019-03-30T07:48:51.185Z,16.20
2019-03-30T07:51:22.510Z,16.30
2019-03-30T07:53:53.841Z,16.40
2019-03-30T07:56:25.348Z,16.50
2019-03-30T07:58:56.500Z,16.60
2019-03-30T08:01:27.940Z,16.70
2019-03-30T08:03:59.497Z,16.80
2019-03-30T08:06:30.595Z,16.80
2019-03-30T08:09:02.128Z,16.90
2019-03-30T08:11:35.629Z,17.00
2019-03-30T08:14:07.184Z,17.10
2019-03-30T08:16:38.627Z,17.20
2019-03-30T08:19:10.080Z,17.20
2019-03-30T08:21:41.496Z,17.40
2019-03-30T08:24:13.119Z,17.40
2019-03-30T08:26:46.109Z,17.60
2019-03-30T08:29:17.409Z,17.70
2019-03-30T08:31:50.015Z,17.70
2019-03-30T08:34:21.595Z,17.80
2019-03-30T08:36:53.391Z,18.00
2019-03-30T08:39:24.587Z,18.10
2019-03-30T08:41:55.751Z,18.10
2019-03-30T08:44:26.959Z,18.30
2019-03-30T08:46:58.399Z,18.40
2019-03-30T08:49:29.685Z,18.50
2019-03-30T08:52:01.276Z,18.60
2019-03-30T08:54:32.661Z,18.70
2019-03-30T08:57:04.297Z,18.90
2019-03-30T08:59:35.970Z,19.00
2019-03-30T09:02:07.606Z,19.20
2019-03-30T09:04:38.766Z,19.50
2019-03-30T09:07:10.413Z,19.80
2019-03-30T09:09:41.561Z,20.10
2019-03-30T09:12:12.734Z,20.50
2019-03-30T09:14:44.162Z,20.90
2019-03-30T09:17:15.515Z,21.30
2019-03-30T09:19:47.369Z,21.70
2019-03-30T09:22:18.924Z,22.10
2019-03-30T09:24:50.475Z,22.40
2019-03-30T09:27:21.753Z,22.80
2019-03-30T09:29:53.437Z,23.10
2019-03-30T09:32:24.711Z,23.40
2019-03-30T09:34:55.828Z,23.70
2019-03-30T09:37:27.245Z,23.90
2019-03-30T09:39:58.637Z,24.10
2019-03-30T09:42:29.882Z,24.30
2019-03-30T09:45:00.978Z,24.40
2019-03-30T09:47:32.487Z,24.40
2019-03-30T09:50:03.925Z,24.60
2019-03-30T09:52:35.000Z,24.60
2019-03-30T09:55:06.791Z,24.70
2019-03-30T09:57:38.292Z,24.70
2019-03-30T10:00:10.101Z,24.80
2019-03-30T10:02:41.569Z,24.80
2019-03-30T10:05:12.832Z,25.00
2019-03-30T10:07:44.221Z,25.00
2019-03-30T10:10:16.024Z,25.10
2019-03-30T10:12:47.501Z,25.20
2019-03-30T10:15:18.645Z,25.20
2019-03-30T10:17:49.913Z,25.20
2019-03-30T10:20:21.348Z,25.40
2019-03-30T10:22:52.852Z,25.40
2019-03-30T10:25:24.253Z,25.50
2019-03-30T10:27:55.500Z,25.50
2019-03-30T10:30:26.945Z,25.60
2019-03-30T10:32:58.208Z,25.60
2019-03-30T10:35:29.723Z,25.70
2019-03-30T10:38:00.974Z,25.70
2019-03-30T10:40:33.122Z,25.80
2019-03-30T10:43:04.546Z,25.90
2019-03-30T10:57:19.586Z,26.00
2019-03-30T10:59:50.861Z,26.00
2019-03-30T11:02:22.608Z,26.30
2019-03-30T11:04:54.088Z,26.50
2019-03-30T11:07:25.305Z,26.70
2019-03-30T11:09:57.125Z,26.80
2019-03-30T11:12:28.344Z,27.00
2019-03-30T11:15:01.252Z,27.10
2019-03-30T11:17:32.577Z,27.20
2019-03-30T11:20:04.494Z,27.30
2019-03-30T11:22:35.910Z,27.30
2019-03-30T11:25:09.001Z,27.40
2019-03-30T11:27:40.766Z,27.50
2019-03-30T11:30:12.335Z,27.60
2019-03-30T11:32:43.964Z,27.70
2019-03-30T11:35:15.123Z,27.80
2019-03-30T11:37:46.529Z,27.80
2019-03-30T11:40:17.941Z,27.90
2019-03-30T11:42:49.282Z,27.90
2019-03-30T11:45:20.812Z,27.90
2019-03-30T11:47:52.511Z,28.00
2019-03-30T11:50:24.082Z,28.00
2019-03-30T11:52:55.977Z,28.10
2019-03-30T11:55:27.339Z,28.10
2019-03-30T11:57:59.222Z,28.20
2019-03-30T12:00:30.450Z,28.20
2019-03-30T12:03:02.011Z,28.30
2019-03-30T12:05:33.503Z,28.30
2019-03-30T12:08:04.853Z,28.40
2019-03-30T12:10:36.024Z,28.50
2019-03-30T12:13:07.904Z,28.50
2019-03-30T12:15:39.284Z,28.60
2019-03-30T12:18:10.469Z,28.70
2019-03-30T12:20:41.858Z,28.80
2019-03-30T12:23:13.550Z,28.90
2019-03-30T12:25:44.689Z,29.00
2019-03-30T12:28:15.968Z,29.10
2019-03-30T12:30:47.184Z,29.20
2019-03-30T12:33:18.580Z,29.30
2019-03-30T12:35:51.387Z,29.40
2019-03-30T12:38:22.379Z,29.40
2019-03-30T12:40:53.973Z,29.50
2019-03-30T12:43:25.433Z,29.60
2019-03-30T12:45:56.421Z,29.70
2019-03-30T12:48:29.181Z,29.70
2019-03-30T12:51:00.163Z,29.80
2019-03-30T12:53:31.211Z,29.80
2019-03-30T12:56:02.268Z,29.90
2019-03-30T12:58:33.433Z,29.90
2019-03-30T13:01:04.603Z,30.00
2019-03-30T13:03:35.587Z,30.00
2019-03-30T13:06:06.634Z,30.00
2019-03-30T13:08:37.626Z,30.10
2019-03-30T13:11:08.845Z,30.10
2019-03-30T13:13:40.106Z,30.10
2019-03-30T13:16:11.630Z,30.20
2019-03-30T13:18:43.207Z,30.20
2019-03-30T13:21:14.761Z,30.20
2019-03-30T13:23:46.290Z,30.30
2019-03-30T13:26:17.962Z,30.30
2019-03-30T13:28:49.269Z,30.30
2019-03-30T13:31:20.858Z,30.40
2019-03-30T13:33:52.429Z,30.30
2019-03-30T13:36:38.949Z,30.30
2019-03-30T13:39:10.262Z,30.30
2019-03-30T13:41:41.442Z,30.30
2019-03-30T13:44:13.282Z,30.20
2019-03-30T13:46:44.962Z,30.20
2019-03-30T13:49:16.159Z,30.10
2019-03-30T13:51:47.485Z,30.00
2019-03-30T13:54:18.930Z,30.00
2019-03-30T13:56:50.232Z,29.90
2019-03-30T13:59:21.878Z,29.80
2019-03-30T14:01:53.236Z,29.80
2019-03-30T14:04:24.558Z,29.60
2019-03-30T14:06:56.018Z,29.60
2019-03-30T14:09:26.929Z,29.50
2019-03-30T14:11:57.998Z,29.40
2019-03-30T14:14:29.040Z,29.40
2019-03-30T14:17:00.330Z,29.30
2019-03-30T14:19:31.357Z,29.20
2019-03-30T14:22:02.321Z,29.10
2019-03-30T14:24:33.385Z,29.00
2019-03-30T14:27:04.477Z,28.90
2019-03-30T14:29:35.492Z,28.70
2019-03-30T14:32:06.455Z,28.70
2019-03-30T14:34:37.354Z,28.60
2019-03-30T14:37:08.370Z,28.40
2019-03-30T14:39:39.341Z,28.30
2019-03-30T14:42:10.649Z,28.30
2019-03-30T14:44:41.920Z,28.20
2019-03-30T14:47:13.072Z,28.10
2019-03-30T14:49:44.265Z,28.00
2019-03-30T14:52:15.370Z,27.90
2019-03-30T14:54:52.532Z,27.80
2019-03-30T14:57:19.643Z,27.70
2019-03-30T14:59:50.909Z,27.60
2019-03-30T15:02:21.954Z,27.50
2019-03-30T15:04:53.075Z,27.50
2019-03-30T15:07:24.273Z,27.40
2019-03-30T15:09:56.168Z,27.30
2019-03-30T15:12:27.314Z,27.20
2019-03-30T15:15:00.353Z,27.20
2019-03-30T15:17:31.882Z,27.10
2019-03-30T15:20:02.953Z,27.00
2019-03-30T15:22:35.400Z,27.00
2019-03-30T15:25:07.217Z,26.90
2019-03-30T15:27:38.663Z,26.80
2019-03-30T15:30:10.461Z,26.80
2019-03-30T15:32:41.556Z,26.80
2019-03-30T15:35:12.618Z,26.70
2019-03-30T15:37:43.724Z,26.70
2019-03-30T15:40:14.905Z,26.60
2019-03-30T15:42:46.081Z,26.60
2019-03-30T15:45:17.191Z,26.50
2019-03-30T15:47:48.436Z,26.50
2019-03-30T15:50:20.730Z,26.40
2019-03-30T15:52:52.197Z,26.40
2019-03-30T15:55:23.154Z,26.30
2019-03-30T15:57:54.399Z,26.30
2019-03-30T16:00:25.660Z,26.30
2019-03-30T16:02:57.229Z,26.20
2019-03-30T16:05:28.391Z,26.20
2019-03-30T16:08:00.831Z,26.20
2019-03-30T16:10:31.913Z,26.20
2019-03-30T16:13:03.360Z,26.20
2019-03-30T16:15:34.828Z,26.20
2019-03-30T16:18:06.257Z,26.30
2019-03-30T16:20:37.772Z,26.30
2019-03-30T16:23:09.649Z,26.30
2019-03-30T16:25:40.866Z,26.40
2019-03-30T16:28:12.270Z,26.40
2019-03-30T16:30:43.844Z,26.40
2019-03-30T16:33:15.382Z,26.50
2019-03-30T16:35:47.324Z,26.60
2019-03-30T16:38:18.478Z,26.60
2019-03-30T16:40:50.407Z,26.60
2019-03-30T16:43:21.782Z,26.70
2019-03-30T16:45:52.949Z,26.70
2019-03-30T16:48:24.432Z,26.70
2019-03-30T16:50:55.658Z,26.70
2019-03-30T16:53:28.518Z,26.80
2019-03-30T16:55:59.725Z,26.80
2019-03-30T16:58:31.170Z,26.80
2019-03-30T17:01:02.676Z,26.80
2019-03-30T17:03:33.764Z,26.90
2019-03-30T17:06:04.856Z,26.80
2019-03-30T17:08:36.126Z,26.90
2019-03-30T17:11:07.150Z,26.90
2019-03-30T17:13:38.305Z,26.90
2019-03-30T17:16:09.389Z,26.80
2019-03-30T17:18:40.326Z,26.80
2019-03-30T17:21:11.322Z,26.70
2019-03-30T17:23:42.392Z,26.70
2019-03-30T17:26:13.678Z,26.60
2019-03-30T17:28:45.114Z,26.50
2019-03-30T17:31:16.522Z,26.40
2019-03-30T17:33:47.973Z,26.30
2019-03-30T17:36:19.489Z,26.20
2019-03-30T17:38:51.472Z,26.00
2019-03-30T17:41:22.803Z,26.00
2019-03-30T17:43:54.121Z,25.80
2019-03-30T17:46:25.367Z,25.80
2019-03-30T17:48:56.868Z,25.60
2019-03-30T17:51:28.295Z,25.50
2019-03-30T17:53:59.687Z,25.30
2019-03-30T17:56:31.028Z,25.20
2019-03-30T17:59:02.834Z,25.10
2019-03-30T18:01:34.404Z,25.00
2019-03-30T18:04:05.687Z,24.80
2019-03-30T18:06:37.291Z,24.70
2019-03-30T18:09:09.304Z,24.60
2019-03-30T18:11:40.452Z,24.50
2019-03-30T18:14:12.008Z,24.40
2019-03-30T18:16:43.178Z,24.30
2019-03-30T18:19:14.408Z,24.20
2019-03-30T18:21:45.748Z,24.10
2019-03-30T18:24:17.053Z,24.00
2019-03-30T18:26:49.641Z,23.90
2019-03-30T18:29:21.138Z,23.80
2019-03-30T18:31:52.399Z,23.70
2019-03-30T18:34:23.598Z,23.60
2019-03-30T18:36:55.553Z,23.50
2019-03-30T18:39:26.803Z,23.50
2019-03-30T18:41:58.408Z,23.40
2019-03-30T18:44:29.719Z,23.30
2019-03-30T18:47:00.898Z,23.20
2019-03-30T18:49:32.160Z,23.20
2019-03-30T18:52:03.815Z,23.10
2019-03-30T18:54:35.502Z,23.00
2019-03-30T18:57:08.969Z,23.00
2019-03-30T18:59:40.138Z,22.90
2019-03-30T19:02:11.300Z,22.80
2019-03-30T19:04:42.865Z,22.80
2019-03-30T19:07:14.313Z,22.70
2019-03-30T19:09:45.937Z,22.70
2019-03-30T19:12:17.536Z,22.60
2019-03-30T19:14:48.854Z,22.60
2019-03-30T19:17:20.729Z,22.50
2019-03-30T19:19:52.054Z,22.50
2019-03-30T19:22:23.207Z,22.40
2019-03-30T19:24:54.595Z,22.40
2019-03-30T19:27:25.932Z,22.30
2019-03-30T19:29:57.336Z,22.30
2019-03-30T19:32:28.726Z,22.20
2019-03-30T19:35:00.489Z,22.20
2019-03-30T19:37:31.729Z,22.20
2019-03-30T19:40:03.479Z,22.10
2019-03-30T19:42:34.958Z,22.10
2019-03-30T19:45:06.946Z,22.10
2019-03-30T19:47:38.424Z,22.00
2019-03-30T19:50:10.866Z,22.00
2019-03-30T19:52:51.798Z,22.00
2019-03-30T19:55:22.822Z,21.90
2019-03-30T19:57:54.317Z,21.90
2019-03-30T20:00:25.838Z,21.90
2019-03-30T20:02:57.466Z,21.80
2019-03-30T20:05:28.747Z,21.80
2019-03-30T20:08:11.517Z,21.70
2019-03-30T20:10:33.194Z,21.70
2019-03-30T20:13:05.000Z,21.60
2019-03-30T20:15:36.117Z,21.60
2019-03-30T20:18:07.363Z,21.60
2019-03-30T20:20:38.720Z,21.50
2019-03-30T20:23:10.071Z,21.50
2019-03-30T20:25:41.490Z,21.50
2019-03-30T20:28:12.753Z,21.40
2019-03-30T20:30:44.437Z,21.40
2019-03-30T20:33:15.942Z,21.40
2019-03-30T20:35:47.285Z,21.40
2019-03-30T20:38:18.895Z,21.40
2019-03-30T20:40:50.122Z,21.40
2019-03-30T20:43:21.649Z,21.50
2019-03-30T20:45:53.433Z,21.70
2019-03-30T20:48:24.957Z,21.90
2019-03-30T20:50:56.565Z,22.10
2019-03-30T20:53:27.878Z,22.30
2019-03-30T20:55:59.137Z,22.40
2019-03-30T20:58:30.226Z,22.40
2019-03-30T21:01:01.989Z,22.50
2019-03-30T21:03:33.444Z,22.50
2019-03-30T21:06:05.029Z,22.50
2019-03-30T21:08:36.534Z,22.50
2019-03-30T21:11:09.567Z,22.50
2019-03-30T21:13:41.191Z,22.40
2019-03-30T21:16:12.677Z,22.40
2019-03-30T21:18:44.711Z,22.30
2019-03-30T21:21:16.223Z,22.20
2019-03-30T21:23:47.681Z,22.20
2019-03-30T21:26:19.005Z,22.10
2019-03-30T21:28:50.389Z,22.00
2019-03-30T21:31:23.406Z,21.90
2019-03-30T21:33:58.650Z,21.80
2019-03-30T21:36:30.016Z,21.70
2019-03-30T21:39:01.723Z,21.60
2019-03-30T21:41:34.573Z,21.60
2019-03-30T21:44:06.253Z,21.50
2019-03-30T21:46:37.595Z,21.40
2019-03-30T21:49:08.970Z,21.30
2019-03-30T21:51:40.767Z,21.20
2019-03-30T21:54:12.315Z,21.20
2019-03-30T21:56:43.703Z,21.10
2019-03-30T21:59:14.865Z,21.00
2019-03-30T22:01:46.138Z,20.90
2019-03-30T22:04:17.197Z,20.90
2019-03-30T22:06:48.734Z,20.80
2019-03-30T22:09:20.324Z,20.80
2019-03-30T22:11:51.766Z,20.70
2019-03-30T22:14:23.190Z,20.60
2019-03-30T22:16:55.668Z,20.50
2019-03-30T22:19:27.273Z,20.50
2019-03-30T22:21:58.578Z,20.40
2019-03-30T22:24:29.836Z,20.00
2019-03-30T22:27:01.097Z,20.10
2019-03-30T22:29:32.132Z,20.10
2019-03-30T22:32:03.846Z,20.20
2019-03-30T22:34:35.132Z,20.20
2019-03-30T22:37:07.949Z,20.10
2019-03-30T22:39:39.603Z,20.10
2019-03-30T22:42:11.082Z,20.10
2019-03-30T22:44:42.740Z,20.00
2019-03-30T22:47:14.121Z,20.00
2019-03-30T22:49:45.803Z,20.00
2019-03-30T22:52:20.262Z,19.90
2019-03-30T22:54:51.725Z,19.90
2019-03-30T22:57:23.520Z,19.80
2019-03-30T22:59:54.879Z,19.70
2019-03-30T23:02:26.186Z,19.70
2019-03-30T23:04:57.537Z,19.60
2019-03-30T23:07:29.313Z,19.60
2019-03-30T23:10:00.782Z,19.50
2019-03-30T23:12:32.217Z,19.50
2019-03-30T23:15:03.344Z,19.40
2019-03-30T23:17:35.108Z,19.40
2019-03-30T23:20:06.670Z,19.40
2019-03-30T23:22:38.439Z,19.30
2019-03-30T23:25:09.818Z,19.30
2019-03-30T23:27:42.583Z,19.20
2019-03-30T23:30:14.530Z,19.20
2019-03-30T23:32:45.891Z,19.10
2019-03-30T23:35:17.362Z,19.10
2019-03-30T23:37:48.478Z,19.00
2019-03-30T23:40:19.930Z,19.00
2019-03-30T23:42:51.522Z,19.00
2019-03-30T23:45:22.949Z,18.90
2019-03-30T23:47:54.478Z,18.90
2019-03-30T23:50:25.997Z,18.90
2019-03-30T23:52:57.195Z,18.80
2019-03-30T23:55:28.419Z,18.80
2019-03-30T23:57:59.976Z,18.80
